Aérodrome :
LOGIN :

S'inscrire | Disclaimer

   EN    FR    IT 

 










Légende :    VFR   VFR Marginal   IFR   IFR Intensif   IFR Très Intensif
Visi : 
Plafond : 
>= 8 km
>= 3000ft
5 à 8 km
1000 à 3000 ft
1500m à 5 km
500 à 1000 ft
800 à 1500m
200 à 500 ft
< 800m
< 200 ft
Symboles :   Orages  Brouillard  Fortes neiges  Fortes précipitations  Vent > 20 kt
SIGMETs :   Divers  Orages  Givrage  Turbulence  Onde Orograph.  Cendres Volcan.







- Altitude de l'aérodrome : 935 ft


EBFS - Florennes

DERNIER METAR :
  • 230433Z 13009KT 2000 -SN SCT004 BKN006 M02/M03 Q0994 YLO YLO TEMPO AMB

METARs EXPIRÉS :
  • 230423Z 13009KT 1200 SN SCT003 BKN004 M02/M03 Q0994 AMB AMB TEMPO RED
  • 230355Z 12009KT 4000 -SN SCT003 BKN004 M02/M03 Q0994 YLO YLO TEMPO AMB
  • 230325Z 13010KT 4000 -SN SCT003 BKN004 M02/M03 Q0994 YLO YLO TEMPO AMB
  • 230322Z 12010KT 4000 -SN SCT003 BKN004 M02/M03 Q0994 YLO YLO TEMPO AMB
  • 230255Z 13010KT 4000 BR SCT003 BKN004 M02/M03 Q0994 YLO YLO TEMPO AMB
  • 230225Z 13008KT 4000 BR SCT003 BKN004 M02/M02 Q0995 YLO YLO TEMPO AMB
  • 230155Z 15009KT 4000 BR SCT003 BKN004 M02/M02 Q0995 YLO YLO TEMPO AMB
  • 230125Z 15008KT 4000 BR SCT003 BKN004 M02/M02 Q0996 YLO YLO TEMPO AMB

TAF TAF EBFS
Valide du 22 à 19h jusqu'au 23 à 07h UTC


221541Z 2219/2307 18005KT 5000 BR SCT005 BKN008
PROB40
TEMPO 2219/2220 1400 -SHRA BKN002 BKN004
BECMG 2220/2222 1200 BR BKN002 BKN004
TEMPO 2221/2307 400 FZFG BKN001 BKN003
Pas de NOTAMs connus pour ce terrain.



MET'MAP, la Météo Aéronautique d'un coup d'oeil ! - Copyright ORBIFLY Décembre 2007 - Disclaimer

ORBIFLY MET'MAP TEAM :

Programmation & Développement : Alexandra Zaïnal
Conception & Développement : Baudouin d'Aumeries
Co-Programmation & Développement : Marc-Olivier Méhu
Soutien technique & logistique : Manuel Goepfert

Contact : metmap@orbifly.com




SOURCES & CREDITS :

   NOAA